Time;durP1;ratioP1;P1;durP2;ratioP2;P2;SDS_P1;SDS_P2;PMS_P1;PMS_P2;Temp;Humidity;BMP_temperature;BMP_pressure;BME280_temperature;BME280_humidity;BME280_pressure;Samples;Min_cycle;Max_cycle;Signal;HPM_P1;HPM_P2
2022/09/06 00:01:22;;;;;;;;;;;;;;;9.38;62.49;100341.29;109410;1273;22482;-56
2022/09/06 00:03:49;;;;;;;3.50;1.50;;;;;;;9.27;62.68;100342.55;109161;1274;124070;-56
2022/09/06 00:06:18;;;;;;;2.60;1.60;;;;;;;9.16;62.95;100346.23;109239;1274;22648;-55
2022/09/06 00:08:45;;;;;;;3.80;1.30;;;;;;;9.06;63.27;100352.20;109365;1274;22414;-56
2022/09/06 00:11:12;;;;;;;2.90;1.50;;;;;;;8.97;63.68;100344.58;109181;1274;138561;-56
2022/09/06 00:13:39;;;;;;;;;;;;;;;8.89;63.88;100342.01;109401;1274;22459;-56
2022/09/06 00:16:11;;;;;;;9.50;1.40;;;;;;;8.79;64.13;100344.49;109307;1274;124932;-56
2022/09/06 00:18:38;;;;;;;3.40;1.30;;;;;;;8.70;64.46;100342.63;109301;1274;22584;-56
2022/09/06 00:21:11;;;;;;;;;;;;;;;8.62;64.82;100343.94;109218;1274;138186;-56
2022/09/06 00:23:38;;;;;;;2.30;1.30;;;;;;;8.56;64.94;100347.38;109427;1274;23129;-56
2022/09/06 00:26:05;;;;;;;5.90;1.80;;;;;;;8.50;65.26;100352.45;109478;1274;22548;-56
2022/09/06 00:28:32;;;;;;;;;;;;;;;8.46;65.31;100352.78;109209;1274;138853;-56
2022/09/06 00:31:07;;;;;;;6.90;1.60;;;;;;;8.47;65.71;100352.27;109398;1274;22565;-56
2022/09/06 00:33:34;;;;;;;2.20;1.40;;;;;;;8.51;65.73;100351.35;109245;1274;139129;-56
2022/09/06 00:36:00;;;;;;;;;;;;;;;8.53;65.49;100353.04;109459;1273;22633;-57
2022/09/06 00:38:27;;;;;;;2.70;1.20;;;;;;;8.56;65.62;100350.46;109421;1273;22462;-55
2022/09/06 00:40:54;;;;;;;;;;;;;;;8.59;65.44;100352.36;109331;1273;139009;-56
2022/09/06 00:43:21;;;;;;;2.70;1.40;;;;;;;8.59;65.39;100348.02;109378;1274;22266;-55
2022/09/06 00:45:48;;;;;;;1.80;1.20;;;;;;;8.56;65.51;100347.16;109240;1274;138224;-55
2022/09/06 00:48:14;;;;;;;;;;;;;;;8.51;65.51;100347.77;109472;1273;22539;-55
2022/09/06 00:50:42;;;;;;;3.60;1.50;;;;;;;8.47;65.72;100350.36;109386;1274;23130;-55
2022/09/06 00:53:08;;;;;;;2.20;1.30;;;;;;;8.41;65.65;100348.10;109072;1274;137105;-55
2022/09/06 00:55:35;;;;;;;;;;;;;;;8.32;66.00;100343.13;109413;1274;22500;-55
2022/09/06 00:58:02;;;;;;;4.30;1.40;;;;;;;8.26;66.19;100351.09;109304;1273;124871;-55
2022/09/06 01:00:29;;;;;;;2.00;1.30;;;;;;;8.15;66.25;100349.69;109453;1273;22455;-55
2022/09/06 01:02:56;;;;;;;;;;;;;;;8.08;66.64;100346.58;109344;1273;137637;-55
2022/09/06 01:05:24;;;;;;;4.20;2.00;;;;;;;8.01;66.75;100349.22;109430;1273;22386;-55
2022/09/06 01:08:14;;;;;;;4.20;1.70;;;;;;;7.93;66.84;100350.70;109223;1273;22576;-55
2022/09/06 01:10:49;;;;;;;1.80;1.30;;;;;;;7.82;67.24;100348.19;109198;1276;137322;-55
2022/09/06 01:13:22;;;;;;;4.70;1.50;;;;;;;7.76;67.41;100348.67;109278;1274;22644;-55
2022/09/06 01:16:33;;;;;;;4.20;1.60;;;;;;;7.67;67.51;100347.80;108047;1273;139173;-55
2022/09/06 01:19:16;;;;;;;3.40;1.40;;;;;;;7.58;67.92;100349.86;104915;1277;23095;-55
2022/09/06 01:21:46;;;;;;;3.40;1.50;;;;;;;7.51;68.19;100345.16;104611;1277;139322;-55
2022/09/06 01:24:29;;;;;;;6.80;1.20;;;;;;;7.47;68.27;100343.73;104839;1277;25470;-55
2022/09/06 01:27:41;;;;;;;2.90;1.50;;;;;;;7.42;68.54;100348.28;104610;1277;138785;-55
2022/09/06 01:30:09;;;;;;;2.50;1.40;;;;;;;7.36;68.87;100350.24;104081;1283;25437;-55
2022/09/06 01:32:38;;;;;;;1.70;1.20;;;;;;;7.30;68.82;100351.40;104002;1284;26554;-55
2022/09/06 01:35:27;;;;;;;2.30;1.30;;;;;;;7.24;69.27;100355.26;108129;1284;139618;-56
2022/09/06 01:37:55;;;;;;;1.70;1.40;;;;;;;7.19;69.57;100354.34;108409;1283;22326;-56
2022/09/06 01:40:21;;;;;;;7.90;1.70;;;;;;;7.17;69.49;100358.05;108182;1284;138728;-56
2022/09/06 01:42:48;;;;;;;;;;;;;;;7.15;69.69;100360.70;108481;1284;23467;-55
2022/09/06 01:45:24;;;;;;;3.40;1.20;;;;;;;7.11;70.08;100359.45;108250;1284;125921;-56
2022/09/06 01:48:28;;;;;;;2.70;1.50;;;;;;;7.08;70.07;100363.91;108212;1282;22524;-56
2022/09/06 01:50:58;;;;;;;3.90;1.70;;;;;;;7.08;70.02;100366.08;108343;1284;140735;-57
2022/09/06 01:53:58;;;;;;;2.50;1.40;;;;;;;7.06;70.02;100366.06;108409;1282;22483;-56
2022/09/06 01:56:38;;;;;;;3.30;1.30;;;;;;;7.02;70.14;100367.58;108388;1284;22540;-57
2022/09/06 01:59:29;;;;;;;2.10;1.40;;;;;;;6.98;70.27;100368.59;108341;1284;138307;-56
2022/09/06 02:02:13;;;;;;;1.10;1.00;;;;;;;6.95;70.42;100365.46;108380;1284;22351;-56
2022/09/06 02:05:15;;;;;;;2.00;1.20;;;;;;;6.93;70.35;100367.35;108128;1284;139690;-56
2022/09/06 02:07:42;;;;;;;2.00;1.10;;;;;;;6.92;70.63;100367.16;108101;1285;22487;-56
2022/09/06 02:10:22;;;;;;;;;;;;;;;6.92;70.51;100370.13;107865;1287;139725;-57
2022/09/06 02:12:52;;;;;;;2.00;1.00;;;;;;;6.89;70.74;100370.67;107867;1288;22713;-56
2022/09/06 02:15:24;;;;;;;2.20;1.60;;;;;;;6.88;70.84;100372.63;107813;1288;140133;-56
2022/09/06 02:18:15;;;;;;;3.10;1.90;;;;;;;6.87;70.75;100376.13;108138;1287;22512;-56
2022/09/06 02:20:47;;;;;;;3.90;2.30;;;;;;;6.85;70.88;100380.77;107887;1287;22485;-56
2022/09/06 02:23:13;;;;;;;3.80;2.60;;;;;;;6.85;70.74;100385.09;108015;1287;138865;-56
2022/09/06 02:25:42;;;;;;;4.90;2.50;;;;;;;6.85;70.97;100382.09;108127;1287;22594;-56
2022/09/06 02:28:09;;;;;;;4.30;3.00;;;;;;;6.84;70.90;100383.22;108014;1287;139113;-56
2022/09/06 02:30:41;;;;;;;4.30;2.80;;;;;;;6.83;70.93;100385.21;108132;1286;22558;-55
2022/09/06 02:33:12;;;;;;;6.80;3.90;;;;;;;6.82;70.84;100382.72;108015;1285;139396;-56
2022/09/06 02:35:50;;;;;;;4.60;3.40;;;;;;;6.80;70.90;100385.35;108060;1287;22488;-55
2022/09/06 02:38:17;;;;;;;8.70;4.80;;;;;;;6.76;71.03;100384.46;108362;1284;22348;-55
2022/09/06 02:40:44;;;;;;;8.80;4.70;;;;;;;6.71;71.19;100386.52;108007;1287;138940;-56
2022/09/06 02:43:11;;;;;;;8.80;5.50;;;;;;;6.67;71.24;100386.84;108107;1285;23242;-55
2022/09/06 02:45:38;;;;;;;;;;;;;;;6.65;71.55;100390.63;108618;1281;138076;-55
2022/09/06 02:48:05;;;;;;;8.70;5.80;;;;;;;6.62;71.58;100390.02;108812;1281;23346;-56
2022/09/06 02:50:31;;;;;;;;;;;;;;;6.60;71.48;100389.73;108703;1281;22540;-56
2022/09/06 02:53:01;;;;;;;9.60;7.40;;;;;;;6.57;71.74;100387.70;108667;1281;125545;-56
2022/09/06 02:55:27;;;;;;;10.10;6.70;;;;;;;6.56;72.07;100386.52;108698;1280;22458;-56
2022/09/06 02:57:54;;;;;;;10.90;7.90;;;;;;;6.58;71.68;100380.95;108700;1281;139411;-55
2022/09/06 03:00:21;;;;;;;;;;;;;;;6.58;72.35;100379.58;108901;1279;22538;-55
2022/09/06 03:02:48;;;;;;;13.20;6.50;;;;;;;6.57;72.13;100381.91;108862;1281;22530;-56
2022/09/06 03:05:15;;;;;;;;;;;;;;;6.55;71.77;100380.77;108699;1281;139528;-55
2022/09/06 03:07:41;;;;;;;10.40;6.30;;;;;;;6.49;71.87;100381.58;108775;1280;22502;-56
2022/09/06 03:10:08;;;;;;;9.20;6.90;;;;;;;6.44;72.18;100381.23;108753;1280;139940;-56
2022/09/06 03:12:35;;;;;;;8.20;6.10;;;;;;;6.43;72.12;100385.26;108718;1281;24412;-56
2022/09/06 03:15:02;;;;;;;10.60;6.30;;;;;;;6.40;72.52;100383.17;108781;1279;139281;-55
2022/09/06 03:17:30;;;;;;;11.60;5.80;;;;;;;6.45;72.75;100391.09;108898;1280;22304;-56
2022/09/06 03:19:56;;;;;;;11.10;7.20;;;;;;;6.50;73.01;100391.98;108757;1281;23259;-56
2022/09/06 03:22:23;;;;;;;9.30;5.80;;;;;;;6.55;73.07;100395.95;108743;1281;139380;-55
2022/09/06 03:24:50;;;;;;;11.80;5.60;;;;;;;6.62;73.68;100396.73;109030;1279;22982;-56
2022/09/06 03:27:16;;;;;;;;;;;;;;;6.70;73.60;100395.63;108887;1279;138574;-56
2022/09/06 03:29:43;;;;;;;14.60;6.70;;;;;;;6.78;73.77;100398.28;108771;1279;22466;-56
2022/09/06 03:32:10;;;;;;;8.00;4.70;;;;;;;6.83;73.71;100400.39;108759;1279;22557;-56
2022/09/06 03:34:37;;;;;;;;;;;;;;;6.89;73.69;100403.67;108757;1279;138336;-56
2022/09/06 03:37:04;;;;;;;12.20;5.80;;;;;;;6.94;73.82;100405.69;109003;1279;22447;-56
2022/09/06 03:39:30;;;;;;;;;;;;;;;6.99;73.43;100401.27;108782;1279;140376;-56
2022/09/06 03:41:57;;;;;;;10.40;6.10;;;;;;;7.03;73.69;100402.84;108684;1280;23049;-56
2022/09/06 03:44:24;;;;;;;12.30;6.10;;;;;;;7.07;73.32;100409.11;108765;1280;22477;-55
2022/09/06 03:46:51;;;;;;;;;;;;;;;7.08;73.29;100413.10;108893;1279;139117;-56
2022/09/06 03:49:18;;;;;;;6.80;5.60;;;;;;;7.08;72.93;100412.35;109050;1279;22564;-56
2022/09/06 03:51:44;;;;;;;;;;;;;;;7.11;73.12;100414.35;107799;1279;1271621;-55
2022/09/06 03:55:05;;;;;;;13.80;6.00;;;;;;;7.17;73.13;100418.05;102168;1302;545886;-55
2022/09/06 03:57:32;;;;;;;13.20;6.20;;;;;;;7.17;73.14;100419.05;103907;1283;139409;-55
2022/09/06 03:59:59;;;;;;;14.30;6.40;;;;;;;7.21;73.34;100419.50;103729;1286;22731;-55
2022/09/06 04:02:37;;;;;;;10.30;6.80;;;;;;;7.23;73.09;100426.19;104506;1280;23935;-56
2022/09/06 04:05:05;;;;;;;12.60;6.40;;;;;;;7.23;72.80;100429.81;104592;1278;138130;-56
2022/09/06 04:07:32;;;;;;;20.00;8.40;;;;;;;7.25;73.07;100428.02;103668;1279;1313711;-58
2022/09/06 04:09:59;;;;;;;10.60;6.80;;;;;;;7.32;73.05;100430.67;104829;1277;138040;-56
2022/09/06 04:12:25;;;;;;;;;;;;;;;7.39;72.99;100430.17;104820;1277;22828;-56
2022/09/06 04:14:52;;;;;;;13.70;7.00;;;;;;;7.49;73.01;100433.06;104694;1276;125153;-56
2022/09/06 04:17:19;;;;;;;8.00;5.10;;;;;;;7.58;72.85;100431.39;104814;1278;25473;-55
2022/09/06 04:19:46;;;;;;;;;;;;;;;7.74;73.00;100431.80;104786;1278;24246;-56
2022/09/06 04:22:12;;;;;;;12.60;4.30;;;;;;;7.93;72.34;100431.06;104658;1277;125197;-56
2022/09/06 04:24:39;;;;;;;10.50;4.80;;;;;;;8.09;71.72;100434.67;104730;1279;22587;-55
2022/09/06 04:27:06;;;;;;;;;;;;;;;8.22;71.36;100439.31;104692;1279;138303;-56
2022/09/06 04:29:32;;;;;;;9.40;4.50;;;;;;;8.28;70.57;100435.58;104839;1278;25432;-55
2022/09/06 04:31:59;;;;;;;;;;;;;;;8.35;70.41;100436.22;104887;1277;24111;-55
2022/09/06 04:34:26;;;;;;;9.40;4.20;;;;;;;8.49;70.07;100436.94;104722;1277;124331;-56
2022/09/06 04:36:53;;;;;;;;;;;;;;;8.68;69.29;100432.30;104755;1278;24226;-56
2022/09/06 04:39:20;;;;;;;14.80;5.00;;;;;;;8.93;68.89;100432.89;104836;1277;125425;-56
2022/09/06 04:41:46;;;;;;;;;;;;;;;9.19;68.51;100432.56;104806;1278;22757;-56
2022/09/06 04:44:13;;;;;;;7.50;4.20;;;;;;;9.50;67.78;100431.98;104769;1278;24405;-56
2022/09/06 04:46:40;;;;;;;;;;;;;;;9.80;66.79;100429.78;104624;1277;137213;-56
2022/09/06 04:49:07;;;;;;;8.80;4.50;;;;;;;10.06;65.80;100427.10;104785;1277;24018;-56
2022/09/06 04:51:34;;;;;;;11.40;6.30;;;;;;;10.24;64.86;100428.52;104651;1277;138137;-56
2022/09/06 04:54:00;;;;;;;;;;;;;;;10.35;64.05;100427.27;104761;1277;26230;-56
2022/09/06 04:56:45;;;;;;;14.20;5.60;;;;;;;10.35;63.49;100430.59;104667;1278;23831;-56
2022/09/06 04:59:11;;;;;;;;;;;;;;;10.36;62.86;100435.48;104552;1278;138398;-55
2022/09/06 05:01:38;;;;;;;11.00;5.90;;;;;;;10.35;62.21;100433.10;104808;1277;23054;-55
2022/09/06 05:04:05;;;;;;;;;;;;;;;10.30;61.62;100435.47;104542;1277;137744;-56
2022/09/06 05:06:32;;;;;;;10.10;5.50;;;;;;;10.23;61.82;100433.13;104642;1278;22585;-55
2022/09/06 05:08:59;;;;;;;11.20;5.80;;;;;;;10.21;61.25;100433.48;104579;1278;137595;-56
2022/09/06 05:11:26;;;;;;;8.40;5.20;;;;;;;10.18;61.34;100432.88;104567;1280;23083;-56
2022/09/06 05:13:53;;;;;;;11.70;5.30;;;;;;;10.17;61.38;100433.55;104615;1278;23125;-56
2022/09/06 05:16:19;;;;;;;;;;;;;;;10.16;61.15;100434.23;104585;1278;137793;-56
2022/09/06 05:18:46;;;;;;;16.00;5.50;;;;;;;10.15;60.81;100435.01;104625;1278;22580;-55
2022/09/06 05:21:13;;;;;;;;;;;;;;;10.13;60.80;100438.59;104551;1277;137964;-56
2022/09/06 05:23:41;;;;;;;11.20;5.30;;;;;;;10.08;61.08;100435.88;104623;1278;22557;-56
2022/09/06 05:26:08;;;;;;;10.30;5.90;;;;;;;10.05;61.17;100434.61;104573;1279;22943;-55
2022/09/06 05:28:35;;;;;;;14.10;5.40;;;;;;;10.03;61.17;100435.40;104629;1279;137728;-56
2022/09/06 05:31:06;;;;;;;8.80;5.00;;;;;;;10.02;60.98;100437.00;104618;1278;25511;-55
2022/09/06 05:33:33;;;;;;;6.90;4.50;;;;;;;10.00;60.55;100431.66;104648;1278;138816;-55
2022/09/06 05:36:01;;;;;;;;;;;;;;;9.94;60.67;100430.55;104647;1277;23940;-56
2022/09/06 05:38:27;;;;;;;17.40;5.70;;;;;;;9.92;60.87;100427.65;104626;1279;25183;-56
2022/09/06 05:40:55;;;;;;;8.90;4.90;;;;;;;9.91;60.64;100426.16;104644;1278;138039;-56
2022/09/06 05:43:22;;;;;;;;;;;;;;;9.91;60.45;100425.48;104814;1278;22563;-56
2022/09/06 05:45:49;;;;;;;11.40;4.10;;;;;;;9.93;60.29;100425.83;104574;1278;124706;-56
2022/09/06 05:48:16;;;;;;;6.50;3.70;;;;;;;9.94;60.16;100425.86;104931;1273;22563;-56
2022/09/06 05:50:42;;;;;;;;;;;;;;;9.98;59.44;100430.81;104937;1273;22740;-56
2022/09/06 05:53:09;;;;;;;6.20;4.00;;;;;;;10.03;59.24;100429.03;104737;1275;123417;-56
2022/09/06 05:55:36;;;;;;;6.60;4.10;;;;;;;10.07;59.01;100430.02;104956;1274;23014;-56
2022/09/06 05:58:08;;;;;;;6.00;3.40;;;;;;;10.09;58.56;100426.60;104722;1275;137730;-56
2022/09/06 06:00:35;;;;;;;9.50;3.80;;;;;;;10.11;58.38;100432.66;104893;1274;24232;-56
2022/09/06 06:03:02;;;;;;;;;;;;;;;10.10;58.18;100435.92;104780;1277;137418;-56
2022/09/06 06:05:28;;;;;;;6.30;3.30;;;;;;;10.08;58.02;100433.27;104887;1275;25276;-56
2022/09/06 06:07:58;;;;;;;6.70;4.40;;;;;;;10.08;58.07;100433.91;104847;1274;22712;-56
2022/09/06 06:10:25;;;;;;;8.90;4.50;;;;;;;10.12;58.17;100440.36;104780;1274;137685;-56
2022/09/06 06:12:52;;;;;;;;;;;;;;;10.17;57.79;100437.08;104875;1276;24252;-56
2022/09/06 06:15:18;;;;;;;6.40;3.80;;;;;;;10.18;57.53;100435.48;104778;1274;125492;-55
2022/09/06 06:17:45;;;;;;;;;;;;;;;10.19;57.43;100436.30;104922;1274;22541;-56
2022/09/06 06:20:12;;;;;;;7.60;3.50;;;;;;;10.22;57.50;100435.84;104986;1275;22618;-56
2022/09/06 06:22:39;;;;;;;9.10;4.10;;;;;;;10.26;57.06;100435.31;104833;1274;137019;-56
2022/09/06 06:25:06;;;;;;;;;;;;;;;10.29;56.81;100439.38;104931;1274;22567;-56
2022/09/06 06:27:34;;;;;;;5.20;3.00;;;;;;;10.34;56.71;100440.33;104773;1275;124144;-56
2022/09/06 06:30:00;;;;;;;7.20;3.60;;;;;;;10.36;56.69;100441.75;104926;1274;24232;-56
2022/09/06 06:32:27;;;;;;;;;;;;;;;10.41;56.44;100442.62;105006;1274;25678;-55
2022/09/06 06:34:54;;;;;;;9.00;2.90;;;;;;;10.45;56.35;100440.50;104959;1274;123960;-56
2022/09/06 06:37:21;;;;;;;;;;;;;;;10.50;56.42;100444.29;105098;1274;25277;-56
2022/09/06 06:39:48;;;;;;;5.20;2.40;;;;;;;10.55;55.41;100444.70;105034;1274;124567;-55
2022/09/06 06:42:15;;;;;;;4.20;1.90;;;;;;;10.56;55.36;100443.46;105118;1274;26504;-55
2022/09/06 06:44:48;;;;;;;9.10;3.20;;;;;;;10.60;54.83;100447.18;105050;1274;24830;-55
2022/09/06 06:47:15;;;;;;;;;;;;;;;10.61;55.22;100447.16;104974;1274;137153;-55
2022/09/06 06:49:41;;;;;;;5.50;2.20;;;;;;;10.64;55.38;100443.64;105015;1274;22637;-55
2022/09/06 06:52:08;;;;;;;;;;;;;;;10.70;55.34;100448.55;104892;1274;137640;-55
2022/09/06 06:54:36;;;;;;;5.00;2.40;;;;;;;10.73;54.56;100444.44;105052;1274;25461;-54
2022/09/06 06:57:03;;;;;;;4.40;2.30;;;;;;;10.77;54.76;100448.85;104915;1274;139127;-55
2022/09/06 06:59:30;;;;;;;3.50;2.20;;;;;;;10.83;54.48;100446.81;104993;1275;24250;-54
2022/09/06 07:01:57;;;;;;;;;;;;;;;10.89;54.01;100447.11;104983;1274;24104;-54
2022/09/06 07:04:24;;;;;;;5.10;2.20;;;;;;;10.94;53.38;100445.08;105001;1275;123977;-55
2022/09/06 07:06:51;;;;;;;;;;;;;;;10.97;53.96;100446.15;104933;1274;25197;-55
2022/09/06 07:09:39;;;;;;;4.60;2.20;;;;;;;11.02;54.28;100444.41;104906;1274;125449;-55
2022/09/06 07:12:25;;;;;;;4.00;1.90;;;;;;;11.09;53.59;100447.61;104905;1274;23972;-55
2022/09/06 07:14:52;;;;;;;;;;;;;;;11.15;53.31;100444.42;104839;1274;137642;-57
2022/09/06 07:17:19;;;;;;;2.90;1.90;;;;;;;11.20;53.17;100441.10;109428;1274;22417;-54
2022/09/06 07:19:46;;;;;;;;;;;;;;;11.25;51.66;100446.02;109413;1274;22512;-54
2022/09/06 07:22:33;;;;;;;2.10;1.70;;;;;;;11.26;50.74;100444.61;109380;1273;124767;-55
2022/09/06 07:24:59;;;;;;;;;;;;;;;11.28;50.79;100446.08;109392;1274;22503;-55
2022/09/06 07:27:26;;;;;;;2.60;1.70;;;;;;;11.32;50.28;100449.66;109394;1273;125010;-55
2022/09/06 07:30:13;;;;;;;4.90;3.00;;;;;;;11.35;50.23;100446.67;109482;1271;23197;-56
2022/09/06 07:32:40;;;;;;;;;;;;;;;11.39;50.70;100447.95;109498;1273;22542;-56
2022/09/06 07:35:07;;;;;;;4.60;2.70;;;;;;;11.45;50.46;100441.73;109316;1274;124133;-56
2022/09/06 07:37:34;;;;;;;5.10;2.50;;;;;;;11.48;50.18;100442.59;109524;1274;23480;-56
2022/09/06 07:40:02;;;;;;;4.10;2.70;;;;;;;11.51;50.37;100439.35;109345;1274;137413;-61
2022/09/06 07:42:30;;;;;;;4.30;2.40;;;;;;;11.56;50.93;100439.89;109421;1274;22446;-61
2022/09/06 07:45:03;;;;;;;4.50;2.50;;;;;;;11.63;50.11;100441.46;109384;1272;137740;-61
2022/09/06 07:47:30;;;;;;;3.80;2.50;;;;;;;11.67;50.31;100437.73;109406;1274;22255;-60
2022/09/06 07:50:17;;;;;;;4.20;2.70;;;;;;;11.76;49.83;100435.30;109523;1271;23206;-61
2022/09/06 07:53:07;;;;;;;5.20;3.30;;;;;;;11.87;49.98;100437.80;109357;1271;137761;-61
2022/09/06 07:55:40;;;;;;;3.40;1.90;;;;;;;11.98;49.47;100442.45;109484;1274;22416;-61
2022/09/06 07:58:07;;;;;;;;;;;;;;;12.07;48.23;100438.56;109353;1274;137240;-61
2022/09/06 08:00:34;;;;;;;3.50;1.80;;;;;;;12.10;47.48;100436.40;109471;1272;22441;-61
2022/09/06 08:03:01;;;;;;;2.80;1.50;;;;;;;12.12;47.68;100438.01;109362;1274;137895;-61
2022/09/06 08:05:27;;;;;;;;;;;;;;;12.12;47.43;100436.63;109459;1274;22409;-61
2022/09/06 08:08:14;;;;;;;2.50;2.00;;;;;;;12.12;47.58;100438.33;109474;1273;23387;-61
2022/09/06 08:11:01;;;;;;;3.60;2.20;;;;;;;12.10;47.64;100437.48;109382;1271;138159;-61
2022/09/06 08:13:28;;;;;;;5.10;2.00;;;;;;;12.10;47.27;100438.84;109428;1274;23273;-61
2022/09/06 08:16:05;;;;;;;5.10;2.80;;;;;;;12.11;47.59;100440.71;109233;1274;138167;-61
2022/09/06 08:18:33;;;;;;;5.40;2.90;;;;;;;12.14;48.08;100436.71;109388;1274;22540;-60
2022/09/06 08:21:10;;;;;;;4.40;2.50;;;;;;;12.20;48.48;100435.36;109411;1273;139840;-61
2022/09/06 08:23:41;;;;;;;5.20;3.30;;;;;;;12.27;48.72;100435.91;109432;1274;22537;-61
2022/09/06 08:26:08;;;;;;;2.70;1.60;;;;;;;12.33;48.85;100434.61;109463;1274;22478;-61
2022/09/06 08:28:35;;;;;;;;;;;;;;;12.38;46.48;100435.85;109298;1274;138280;-61
2022/09/06 08:31:09;;;;;;;2.60;1.60;;;;;;;12.36;46.74;100431.01;109443;1274;22422;-61
2022/09/06 08:33:36;;;;;;;2.30;1.60;;;;;;;12.33;46.23;100426.25;109278;1274;139464;-60
2022/09/06 08:36:04;;;;;;;2.10;1.40;;;;;;;12.32;46.16;100427.96;109403;1274;22455;-61
2022/09/06 08:38:31;;;;;;;2.20;1.80;;;;;;;12.32;46.05;100422.73;109475;1274;22426;-61
2022/09/06 08:41:09;;;;;;;1.90;1.20;;;;;;;12.32;46.42;100420.81;109241;1274;136215;-61
2022/09/06 08:43:38;;;;;;;2.40;1.80;;;;;;;12.32;46.29;100411.96;109300;1276;22506;-61
2022/09/06 08:46:06;;;;;;;2.10;1.70;;;;;;;12.35;46.97;100413.28;109334;1273;138439;-61
2022/09/06 08:48:35;;;;;;;3.40;1.50;;;;;;;12.44;46.64;100411.94;109135;1274;22235;-61
2022/09/06 08:51:41;;;;;;;6.50;1.80;;;;;;;12.53;46.40;100407.98;109373;1274;22442;-59
2022/09/06 08:54:17;;;;;;;3.10;1.90;;;;;;;12.60;46.31;100400.16;108916;1279;22563;-59
2022/09/06 08:57:02;;;;;;;4.40;2.20;;;;;;;12.65;46.00;100402.83;108733;1279;22591;-59
2022/09/06 08:59:34;;;;;;;2.90;1.50;;;;;;;12.68;45.19;100403.48;108842;1280;137988;-60
2022/09/06 09:02:12;;;;;;;6.10;1.80;;;;;;;12.64;45.39;100397.73;108961;1280;22462;-60
2022/09/06 09:04:55;;;;;;;3.20;1.70;;;;;;;12.64;45.54;100389.47;108700;1281;139118;-61
2022/09/06 09:07:51;;;;;;;2.40;1.80;;;;;;;12.70;46.06;100386.82;108677;1281;22546;-60
2022/09/06 09:10:21;;;;;;;4.10;1.90;;;;;;;12.78;45.61;100390.59;107930;1286;139696;-60
2022/09/06 09:12:48;;;;;;;3.40;1.90;;;;;;;12.79;45.47;100385.63;108257;1286;22533;-60
2022/09/06 09:15:16;;;;;;;2.20;1.60;;;;;;;12.80;45.31;100384.12;108038;1287;138964;-60
2022/09/06 09:17:43;;;;;;;4.80;2.30;;;;;;;12.83;45.13;100377.70;108083;1287;22542;-60
2022/09/06 09:20:10;;;;;;;9.80;2.80;;;;;;;12.83;45.37;100375.86;108144;1286;23186;-60
2022/09/06 09:22:37;;;;;;;3.80;2.10;;;;;;;12.86;46.63;100370.41;108079;1287;137584;-60
2022/09/06 09:25:05;;;;;;;2.50;1.70;;;;;;;12.97;45.60;100375.33;107791;1287;22496;-60
2022/09/06 09:27:32;;;;;;;1.80;1.40;;;;;;;13.04;44.56;100381.94;107535;1288;139080;-60
2022/09/06 09:30:01;;;;;;;3.00;2.10;;;;;;;13.08;43.87;100377.52;108014;1287;22488;-60
2022/09/06 09:32:48;;;;;;;3.10;1.70;;;;;;;13.07;44.35;100369.45;108747;1281;22874;-60
2022/09/06 09:35:22;;;;;;;3.70;1.80;;;;;;;13.06;44.30;100371.90;108545;1281;139164;-60
2022/09/06 09:37:59;;;;;;;3.40;2.10;;;;;;;13.08;44.66;100377.55;108795;1281;22552;-60
2022/09/06 09:40:38;;;;;;;5.00;2.50;;;;;;;13.06;44.83;100379.50;108742;1281;137945;-60
2022/09/06 09:43:24;;;;;;;3.40;2.30;;;;;;;13.01;45.08;100377.61;108726;1281;22469;-60
2022/09/06 09:46:10;;;;;;;3.40;2.40;;;;;;;12.96;45.48;100378.98;108631;1281;139643;-60
2022/09/06 09:48:37;;;;;;;8.80;4.70;;;;;;;12.93;45.90;100377.84;109395;1274;23243;-59
2022/09/06 09:51:23;;;;;;;14.40;5.70;;;;;;;12.90;46.13;100380.86;109372;1274;22457;-59
2022/09/06 09:53:56;;;;;;;10.00;7.00;;;;;;;12.86;46.51;100380.77;109473;1273;22426;-60
2022/09/06 09:56:33;;;;;;;12.50;6.10;;;;;;;12.84;46.63;100381.00;109515;1273;22474;-59
2022/09/06 09:59:00;;;;;;;;;;;;;;;12.81;46.42;100378.00;109287;1273;137945;-59
2022/09/06 10:01:30;;;;;;;11.60;5.90;;;;;;;12.76;45.85;100376.89;109490;1271;22410;-60
2022/09/06 10:04:08;;;;;;;9.00;5.10;;;;;;;12.73;46.31;100381.66;109358;1273;138917;-60
2022/09/06 10:07:10;;;;;;;13.70;4.90;;;;;;;12.74;44.89;100380.91;109377;1274;22540;-60
2022/09/06 10:10:04;;;;;;;11.90;7.20;;;;;;;12.73;45.03;100382.82;109408;1273;139559;-60
2022/09/06 10:12:35;;;;;;;13.40;6.90;;;;;;;12.75;45.51;100384.33;108763;1281;22317;-60
2022/09/06 10:15:02;;;;;;;17.30;9.50;;;;;;;12.78;45.55;100380.52;108569;1282;22492;-60
2022/09/06 10:17:51;;;;;;;16.60;8.80;;;;;;;12.81;45.65;100382.17;108550;1281;22577;-60
2022/09/06 10:20:19;;;;;;;17.80;10.70;;;;;;;12.85;45.79;100377.24;108849;1280;23340;-60
2022/09/06 10:23:01;;;;;;;19.50;11.00;;;;;;;12.89;45.66;100378.94;108468;1281;138000;-60
2022/09/06 10:25:45;;;;;;;22.40;12.10;;;;;;;12.90;45.68;100373.70;108602;1281;23146;-60
2022/09/06 10:28:35;;;;;;;22.50;13.40;;;;;;;12.88;46.27;100372.46;108812;1279;139482;-60
2022/09/06 10:31:21;;;;;;;22.50;12.50;;;;;;;12.90;46.07;100369.81;108938;1279;22453;-60
2022/09/06 10:34:17;;;;;;;20.70;11.60;;;;;;;12.92;45.85;100369.41;108659;1279;138920;-59
2022/09/06 10:37:15;;;;;;;22.90;13.00;;;;;;;12.94;45.95;100372.50;108907;1279;22507;-60
2022/09/06 10:40:06;;;;;;;23.00;13.10;;;;;;;12.97;45.17;100372.05;108610;1281;139237;-60
2022/09/06 10:42:46;;;;;;;21.60;12.90;;;;;;;12.96;45.27;100367.28;108756;1281;22632;-60
2022/09/06 10:45:38;;;;;;;27.60;14.10;;;;;;;12.98;45.66;100370.48;108543;1280;138691;-60
2022/09/06 10:48:12;;;;;;;24.00;14.70;;;;;;;13.04;45.27;100370.83;108935;1277;22568;-60
2022/09/06 10:51:07;;;;;;;28.80;15.40;;;;;;;13.09;45.86;100367.40;109212;1273;22470;-60
2022/09/06 10:53:43;;;;;;;32.60;18.90;;;;;;;13.16;45.80;100373.25;109289;1274;22445;-60
2022/09/06 10:56:11;;;;;;;36.70;19.30;;;;;;;13.18;45.73;100366.00;109423;1273;22420;-60
2022/09/06 10:58:58;;;;;;;36.00;18.90;;;;;;;13.21;46.16;100367.08;109300;1272;138027;-60
2022/09/06 11:02:01;;;;;;;45.00;23.60;;;;;;;13.28;46.19;100367.23;109457;1273;22586;-60
2022/09/06 11:04:33;;;;;;;51.10;29.10;;;;;;;13.35;45.87;100366.06;109369;1271;138461;-61
2022/09/06 11:07:27;;;;;;;53.20;29.40;;;;;;;13.40;45.83;100366.46;109444;1273;22403;-60
2022/09/06 11:10:01;;;;;;;58.90;31.80;;;;;;;13.42;45.50;100363.40;109340;1274;137866;-60
2022/09/06 11:12:47;;;;;;;61.90;32.10;;;;;;;13.46;45.18;100363.50;109466;1273;22474;-60
2022/09/06 11:15:14;;;;;;;60.90;34.50;;;;;;;13.50;44.71;100363.33;109362;1274;138022;-60
2022/09/06 11:18:02;;;;;;;55.50;33.90;;;;;;;13.54;44.99;100365.18;109415;1273;22559;-60
2022/09/06 11:20:40;;;;;;;55.40;32.60;;;;;;;13.55;44.59;100364.16;109380;1273;22457;-61
2022/09/06 11:23:22;;;;;;;53.90;33.70;;;;;;;13.54;44.53;100361.08;109191;1274;138606;-60
2022/09/06 11:26:17;;;;;;;71.60;40.20;;;;;;;13.49;44.39;100361.06;109409;1273;23189;-60
2022/09/06 11:28:46;;;;;;;97.60;55.10;;;;;;;13.42;44.70;100357.92;109282;1274;138380;-61
2022/09/06 11:31:28;;;;;;;111.50;63.50;;;;;;;13.42;44.99;100361.69;109251;1274;22426;-60
2022/09/06 11:34:22;;;;;;;116.00;68.90;;;;;;;13.35;45.02;100359.33;109248;1274;140185;-60
2022/09/06 11:36:55;;;;;;;98.70;58.60;;;;;;;13.28;45.63;100358.19;109419;1274;22453;-60
2022/09/06 11:39:40;;;;;;;74.00;43.80;;;;;;;13.23;44.87;100364.77;108768;1274;138935;-60
2022/09/06 11:42:46;;;;;;;113.10;63.50;;;;;;;13.17;44.54;100366.87;109369;1274;22386;-60
2022/09/06 11:45:21;;;;;;;129.10;72.80;;;;;;;13.13;45.33;100366.61;109312;1274;138827;-60
2022/09/06 11:47:51;;;;;;;128.30;75.30;;;;;;;13.11;45.96;100364.48;109477;1274;23578;-60
2022/09/06 11:50:23;;;;;;;146.50;81.90;;;;;;;13.09;46.25;100364.63;109289;1274;22569;-60
2022/09/06 11:53:05;;;;;;;154.40;89.10;;;;;;;13.08;47.01;100364.16;109337;1274;138101;-60